Terminal Aerodrome Forecast
Issued by NWS

Current Version | Previous Version | Graphics & Text | Print | Product List | Glossary On
Versions: 1 2 3 4 5 6 7 8 9 10 11 12 13 14 15 16 17 18 19 20 21 22 23 24 25 26
000
FTUS41 KILN 160200 AAA
TAFLUK
TAF AMD
KLUK 160215Z 1602/1624 17007KT P6SM OVC025
      TEMPO 1602/1603 -SHRA
     FM160700 20008KT P6SM OVC018
      TEMPO 1607/1610 -SHRA
     FM161100 23010KT P6SM OVC015
     FM161500 23012G20KT P6SM VCSH OVC020
     FM162000 24012G20KT P6SM OVC020=

USA.gov is the U.S. government's official web portal to all federal, state and local government web resources and services.